Fort Lowell, Arizona
Current Conditions -  °F | °C
As of 4:58 PM on Tuesday 25 Nov 2014 (Local Time) from KDMA Reporting Station
Clear Clear  
Wind Chill: 60°   Ceiling: Unl
Heat Index: 60°   Visibility: 10mi
Dew Point:   Wind: 13mph
Humidity: 9%   Direction: 310°NW
Pressure: 30.3"   Gusts: NA
Location:  32.3323°N, 110.678°W
Report Text: KDMA 252358Z AUTO 31011KT 10SM CLR 15/M17 A3030 RMK AO2 SLP252 T01541173 10169 20135 57008 $
Loading
Personal Weather Stations






























Interactive Weather Map New forecast layout! Learn more

10-Day Weather Forecast

Advertisements
Track Severe Weather on mobile